sensor_id;sensor_type;location;lat;lon;timestamp;temperature;humidity
25320;DHT22;13256;49.012;8.610;2023-02-22T00:00:57;4.10;99.90
25320;DHT22;13256;49.012;8.610;2023-02-22T00:03:50;4.00;99.90
25320;DHT22;13256;49.012;8.610;2023-02-22T00:06:21;3.90;99.90
25320;DHT22;13256;49.012;8.610;2023-02-22T00:08:54;3.90;99.90
25320;DHT22;13256;49.012;8.610;2023-02-22T00:11:26;3.90;99.90
25320;DHT22;13256;49.012;8.610;2023-02-22T00:13:57;3.80;99.90
25320;DHT22;13256;49.012;8.610;2023-02-22T00:16:27;3.80;99.90
25320;DHT22;13256;49.012;8.610;2023-02-22T00:18:56;3.70;99.90
25320;DHT22;13256;49.012;8.610;2023-02-22T00:21:27;3.70;99.90
25320;DHT22;13256;49.012;8.610;2023-02-22T00:24:24;3.70;99.90
25320;DHT22;13256;49.012;8.610;2023-02-22T00:26:55;3.70;99.90
25320;DHT22;13256;49.012;8.610;2023-02-22T00:29:24;3.70;99.90
25320;DHT22;13256;49.012;8.610;2023-02-22T00:31:52;3.70;99.90
25320;DHT22;13256;49.012;8.610;2023-02-22T00:34:21;3.70;99.90
25320;DHT22;13256;49.012;8.610;2023-02-22T00:36:52;3.80;99.90
25320;DHT22;13256;49.012;8.610;2023-02-22T00:39:20;3.80;99.90
25320;DHT22;13256;49.012;8.610;2023-02-22T00:41:49;3.80;99.90
25320;DHT22;13256;49.012;8.610;2023-02-22T00:44:19;3.70;99.90
25320;DHT22;13256;49.012;8.610;2023-02-22T00:46:47;3.70;99.90
25320;DHT22;13256;49.012;8.610;2023-02-22T00:49:17;3.70;99.90
25320;DHT22;13256;49.012;8.610;2023-02-22T00:51:44;3.70;99.90
25320;DHT22;13256;49.012;8.610;2023-02-22T00:54:11;3.60;99.90
25320;DHT22;13256;49.012;8.610;2023-02-22T00:56:39;3.60;99.90
25320;DHT22;13256;49.012;8.610;2023-02-22T00:59:12;3.50;99.90
25320;DHT22;13256;49.012;8.610;2023-02-22T01:01:49;3.50;99.90
25320;DHT22;13256;49.012;8.610;2023-02-22T01:04:45;3.50;99.90
25320;DHT22;13256;49.012;8.610;2023-02-22T01:07:15;3.50;99.90
25320;DHT22;13256;49.012;8.610;2023-02-22T01:09:45;3.50;99.90
25320;DHT22;13256;49.012;8.610;2023-02-22T01:12:16;3.50;99.90
25320;DHT22;13256;49.012;8.610;2023-02-22T01:14:48;3.40;99.90
25320;DHT22;13256;49.012;8.610;2023-02-22T01:17:15;3.40;99.90
25320;DHT22;13256;49.012;8.610;2023-02-22T01:19:41;3.40;99.90
25320;DHT22;13256;49.012;8.610;2023-02-22T01:22:13;3.40;99.90
25320;DHT22;13256;49.012;8.610;2023-02-22T01:24:40;3.40;99.90
25320;DHT22;13256;49.012;8.610;2023-02-22T01:27:10;3.50;99.90
25320;DHT22;13256;49.012;8.610;2023-02-22T01:30:30;3.50;99.90
25320;DHT22;13256;49.012;8.610;2023-02-22T01:33:03;3.50;99.90
25320;DHT22;13256;49.012;8.610;2023-02-22T01:35:37;3.50;99.90
25320;DHT22;13256;49.012;8.610;2023-02-22T01:38:15;3.50;99.90
25320;DHT22;13256;49.012;8.610;2023-02-22T01:40:45;3.50;99.90
25320;DHT22;13256;49.012;8.610;2023-02-22T01:43:25;3.50;99.90
25320;DHT22;13256;49.012;8.610;2023-02-22T01:49:24;3.40;99.90
25320;DHT22;13256;49.012;8.610;2023-02-22T01:51:59;3.30;99.90
25320;DHT22;13256;49.012;8.610;2023-02-22T01:54:57;3.30;99.90
25320;DHT22;13256;49.012;8.610;2023-02-22T01:57:28;3.20;99.90
25320;DHT22;13256;49.012;8.610;2023-02-22T02:00:04;3.30;99.90
25320;DHT22;13256;49.012;8.610;2023-02-22T02:02:47;3.30;99.90
25320;DHT22;13256;49.012;8.610;2023-02-22T02:05:45;3.30;99.90
25320;DHT22;13256;49.012;8.610;2023-02-22T02:08:34;3.30;99.90
25320;DHT22;13256;49.012;8.610;2023-02-22T02:11:04;3.40;99.90
25320;DHT22;13256;49.012;8.610;2023-02-22T02:13:35;3.30;99.90
25320;DHT22;13256;49.012;8.610;2023-02-22T02:16:05;3.30;99.90
25320;DHT22;13256;49.012;8.610;2023-02-22T02:18:36;3.20;99.90
25320;DHT22;13256;49.012;8.610;2023-02-22T02:38:38;3.50;99.90
25320;DHT22;13256;49.012;8.610;2023-02-22T02:41:19;3.50;99.90
25320;DHT22;13256;49.012;8.610;2023-02-22T02:44:03;3.40;99.90
25320;DHT22;13256;49.012;8.610;2023-02-22T02:46:45;3.40;99.90
25320;DHT22;13256;49.012;8.610;2023-02-22T02:49:26;3.30;99.90
25320;DHT22;13256;49.012;8.610;2023-02-22T02:52:03;3.30;99.90
25320;DHT22;13256;49.012;8.610;2023-02-22T02:54:36;3.30;99.90
25320;DHT22;13256;49.012;8.610;2023-02-22T02:57:05;3.30;99.90
25320;DHT22;13256;49.012;8.610;2023-02-22T02:59:35;3.30;99.90
25320;DHT22;13256;49.012;8.610;2023-02-22T03:13:48;3.40;99.90
25320;DHT22;13256;49.012;8.610;2023-02-22T03:19:32;3.30;99.90
25320;DHT22;13256;49.012;8.610;2023-02-22T03:22:07;3.20;99.90
25320;DHT22;13256;49.012;8.610;2023-02-22T03:27:44;3.20;99.90
25320;DHT22;13256;49.012;8.610;2023-02-22T03:30:18;3.20;99.90
25320;DHT22;13256;49.012;8.610;2023-02-22T03:32:53;3.20;99.90
25320;DHT22;13256;49.012;8.610;2023-02-22T03:35:32;3.20;99.90
25320;DHT22;13256;49.012;8.610;2023-02-22T03:38:08;3.10;99.90
25320;DHT22;13256;49.012;8.610;2023-02-22T03:40:44;3.10;99.90
25320;DHT22;13256;49.012;8.610;2023-02-22T03:43:24;3.10;99.90
25320;DHT22;13256;49.012;8.610;2023-02-22T03:45:59;3.00;99.90
25320;DHT22;13256;49.012;8.610;2023-02-22T03:51:01;3.00;99.90
25320;DHT22;13256;49.012;8.610;2023-02-22T03:53:33;3.00;99.90
25320;DHT22;13256;49.012;8.610;2023-02-22T03:56:06;2.90;99.90
25320;DHT22;13256;49.012;8.610;2023-02-22T03:58:37;2.90;99.90
25320;DHT22;13256;49.012;8.610;2023-02-22T04:01:06;2.90;99.90
25320;DHT22;13256;49.012;8.610;2023-02-22T04:03:38;2.90;99.90
25320;DHT22;13256;49.012;8.610;2023-02-22T04:06:08;2.90;99.90
25320;DHT22;13256;49.012;8.610;2023-02-22T04:08:35;2.90;99.90
25320;DHT22;13256;49.012;8.610;2023-02-22T04:11:04;2.90;99.90
25320;DHT22;13256;49.012;8.610;2023-02-22T04:13:39;3.00;99.90
25320;DHT22;13256;49.012;8.610;2023-02-22T04:16:06;3.00;99.90
25320;DHT22;13256;49.012;8.610;2023-02-22T04:18:38;3.00;99.90
25320;DHT22;13256;49.012;8.610;2023-02-22T04:21:05;3.00;99.90
25320;DHT22;13256;49.012;8.610;2023-02-22T04:23:39;2.90;99.90
25320;DHT22;13256;49.012;8.610;2023-02-22T04:26:07;2.90;99.90
25320;DHT22;13256;49.012;8.610;2023-02-22T04:28:33;2.90;99.90
25320;DHT22;13256;49.012;8.610;2023-02-22T04:31:14;2.90;99.90
25320;DHT22;13256;49.012;8.610;2023-02-22T04:33:42;2.90;99.90
25320;DHT22;13256;49.012;8.610;2023-02-22T04:36:15;2.90;99.90
25320;DHT22;13256;49.012;8.610;2023-02-22T04:38:49;2.80;99.90
25320;DHT22;13256;49.012;8.610;2023-02-22T04:41:17;2.80;99.90
25320;DHT22;13256;49.012;8.610;2023-02-22T04:43:45;2.80;99.90
25320;DHT22;13256;49.012;8.610;2023-02-22T04:46:32;2.70;99.90
25320;DHT22;13256;49.012;8.610;2023-02-22T04:48:59;2.70;99.90
25320;DHT22;13256;49.012;8.610;2023-02-22T04:51:29;2.70;99.90
25320;DHT22;13256;49.012;8.610;2023-02-22T04:54:04;2.70;99.90
25320;DHT22;13256;49.012;8.610;2023-02-22T04:56:38;2.70;99.90
25320;DHT22;13256;49.012;8.610;2023-02-22T04:59:10;2.70;99.90
25320;DHT22;13256;49.012;8.610;2023-02-22T05:01:47;2.70;99.90
25320;DHT22;13256;49.012;8.610;2023-02-22T05:04:15;2.70;99.90
25320;DHT22;13256;49.012;8.610;2023-02-22T05:06:48;2.60;99.90
25320;DHT22;13256;49.012;8.610;2023-02-22T05:09:15;2.60;99.90
25320;DHT22;13256;49.012;8.610;2023-02-22T05:11:45;2.60;99.90
25320;DHT22;13256;49.012;8.610;2023-02-22T05:14:12;2.60;99.90
25320;DHT22;13256;49.012;8.610;2023-02-22T05:16:41;2.60;99.90
25320;DHT22;13256;49.012;8.610;2023-02-22T05:19:08;2.70;99.90
25320;DHT22;13256;49.012;8.610;2023-02-22T05:21:35;2.60;99.90
25320;DHT22;13256;49.012;8.610;2023-02-22T05:24:05;2.70;99.90
25320;DHT22;13256;49.012;8.610;2023-02-22T05:26:34;2.70;99.90
25320;DHT22;13256;49.012;8.610;2023-02-22T05:29:03;2.70;99.90
25320;DHT22;13256;49.012;8.610;2023-02-22T05:31:32;2.80;99.90
25320;DHT22;13256;49.012;8.610;2023-02-22T05:34:01;2.80;99.90
25320;DHT22;13256;49.012;8.610;2023-02-22T05:36:30;2.80;99.90
25320;DHT22;13256;49.012;8.610;2023-02-22T05:38:58;2.80;99.90
25320;DHT22;13256;49.012;8.610;2023-02-22T05:41:30;2.80;99.90
25320;DHT22;13256;49.012;8.610;2023-02-22T05:44:00;2.80;99.90
25320;DHT22;13256;49.012;8.610;2023-02-22T05:46:28;2.80;99.90
25320;DHT22;13256;49.012;8.610;2023-02-22T05:48:55;2.80;99.90
25320;DHT22;13256;49.012;8.610;2023-02-22T05:51:22;2.70;99.90
25320;DHT22;13256;49.012;8.610;2023-02-22T05:53:49;2.70;99.90
25320;DHT22;13256;49.012;8.610;2023-02-22T05:56:23;2.70;99.90
25320;DHT22;13256;49.012;8.610;2023-02-22T05:58:53;2.70;99.90
25320;DHT22;13256;49.012;8.610;2023-02-22T06:01:25;2.70;99.90
25320;DHT22;13256;49.012;8.610;2023-02-22T06:03:54;2.70;99.90
25320;DHT22;13256;49.012;8.610;2023-02-22T06:06:24;2.80;99.90
25320;DHT22;13256;49.012;8.610;2023-02-22T06:08:51;2.80;99.90
25320;DHT22;13256;49.012;8.610;2023-02-22T06:11:27;2.80;99.90
25320;DHT22;13256;49.012;8.610;2023-02-22T06:13:54;2.80;99.90
25320;DHT22;13256;49.012;8.610;2023-02-22T06:16:32;2.80;99.90
25320;DHT22;13256;49.012;8.610;2023-02-22T06:19:03;2.80;99.90
25320;DHT22;13256;49.012;8.610;2023-02-22T06:21:32;2.60;99.90
25320;DHT22;13256;49.012;8.610;2023-02-22T06:24:04;2.60;99.90
25320;DHT22;13256;49.012;8.610;2023-02-22T06:26:33;2.60;99.90
25320;DHT22;13256;49.012;8.610;2023-02-22T06:29:04;2.60;99.90
25320;DHT22;13256;49.012;8.610;2023-02-22T06:31:34;2.60;99.90
25320;DHT22;13256;49.012;8.610;2023-02-22T06:34:03;2.60;99.90
25320;DHT22;13256;49.012;8.610;2023-02-22T06:36:30;2.50;99.90
25320;DHT22;13256;49.012;8.610;2023-02-22T06:39:02;2.60;99.90
25320;DHT22;13256;49.012;8.610;2023-02-22T06:41:31;2.50;99.90
25320;DHT22;13256;49.012;8.610;2023-02-22T06:44:02;2.40;99.90
25320;DHT22;13256;49.012;8.610;2023-02-22T06:46:30;2.40;99.90
25320;DHT22;13256;49.012;8.610;2023-02-22T06:49:05;2.30;99.90
25320;DHT22;13256;49.012;8.610;2023-02-22T06:51:36;2.30;99.90
25320;DHT22;13256;49.012;8.610;2023-02-22T06:54:03;2.30;99.90
25320;DHT22;13256;49.012;8.610;2023-02-22T06:56:32;2.30;99.90
25320;DHT22;13256;49.012;8.610;2023-02-22T06:59:00;2.30;99.90
25320;DHT22;13256;49.012;8.610;2023-02-22T07:01:33;2.40;99.90
25320;DHT22;13256;49.012;8.610;2023-02-22T07:04:00;2.40;99.90
25320;DHT22;13256;49.012;8.610;2023-02-22T07:06:45;2.50;99.90
25320;DHT22;13256;49.012;8.610;2023-02-22T07:09:13;2.50;99.90
25320;DHT22;13256;49.012;8.610;2023-02-22T07:11:46;2.50;99.90
25320;DHT22;13256;49.012;8.610;2023-02-22T07:14:17;2.60;99.90
25320;DHT22;13256;49.012;8.610;2023-02-22T07:16:47;2.50;99.90
25320;DHT22;13256;49.012;8.610;2023-02-22T07:19:17;2.60;99.90
25320;DHT22;13256;49.012;8.610;2023-02-22T07:21:52;2.70;99.90
25320;DHT22;13256;49.012;8.610;2023-02-22T07:24:29;2.70;99.90
25320;DHT22;13256;49.012;8.610;2023-02-22T07:27:15;2.70;99.90
25320;DHT22;13256;49.012;8.610;2023-02-22T07:29:47;2.80;99.90
25320;DHT22;13256;49.012;8.610;2023-02-22T07:32:20;2.80;99.90
25320;DHT22;13256;49.012;8.610;2023-02-22T07:34:57;2.90;99.90
25320;DHT22;13256;49.012;8.610;2023-02-22T07:37:28;2.90;99.90
25320;DHT22;13256;49.012;8.610;2023-02-22T07:40:00;3.00;99.90
25320;DHT22;13256;49.012;8.610;2023-02-22T07:42:30;3.10;99.90
25320;DHT22;13256;49.012;8.610;2023-02-22T07:45:01;3.10;99.90
25320;DHT22;13256;49.012;8.610;2023-02-22T07:47:30;3.20;99.90
25320;DHT22;13256;49.012;8.610;2023-02-22T07:49:58;3.30;99.90
25320;DHT22;13256;49.012;8.610;2023-02-22T07:52:28;3.40;99.90
25320;DHT22;13256;49.012;8.610;2023-02-22T07:54:56;3.50;99.90
25320;DHT22;13256;49.012;8.610;2023-02-22T07:57:34;3.60;99.90
25320;DHT22;13256;49.012;8.610;2023-02-22T08:00:08;3.70;99.90
25320;DHT22;13256;49.012;8.610;2023-02-22T08:02:58;3.80;99.90
25320;DHT22;13256;49.012;8.610;2023-02-22T08:05:52;3.90;99.90
25320;DHT22;13256;49.012;8.610;2023-02-22T08:08:23;4.00;99.90
25320;DHT22;13256;49.012;8.610;2023-02-22T08:11:02;4.10;99.90
25320;DHT22;13256;49.012;8.610;2023-02-22T08:13:38;4.20;99.90
25320;DHT22;13256;49.012;8.610;2023-02-22T08:16:10;4.20;99.90
25320;DHT22;13256;49.012;8.610;2023-02-22T08:18:37;4.40;99.90
25320;DHT22;13256;49.012;8.610;2023-02-22T08:21:12;4.50;99.90
25320;DHT22;13256;49.012;8.610;2023-02-22T08:23:44;4.60;99.90
25320;DHT22;13256;49.012;8.610;2023-02-22T08:26:19;4.80;99.90
25320;DHT22;13256;49.012;8.610;2023-02-22T08:28:49;4.90;99.90
25320;DHT22;13256;49.012;8.610;2023-02-22T08:31:28;5.00;99.90
25320;DHT22;13256;49.012;8.610;2023-02-22T08:34:02;5.10;99.90
25320;DHT22;13256;49.012;8.610;2023-02-22T08:36:32;5.20;99.90
25320;DHT22;13256;49.012;8.610;2023-02-22T08:39:01;5.30;99.90
25320;DHT22;13256;49.012;8.610;2023-02-22T08:41:32;5.50;99.90
25320;DHT22;13256;49.012;8.610;2023-02-22T08:44:02;5.60;99.90
25320;DHT22;13256;49.012;8.610;2023-02-22T08:46:37;5.80;99.90
25320;DHT22;13256;49.012;8.610;2023-02-22T08:49:06;6.00;99.90
25320;DHT22;13256;49.012;8.610;2023-02-22T08:51:46;6.20;99.90
25320;DHT22;13256;49.012;8.610;2023-02-22T08:54:17;6.40;99.90
25320;DHT22;13256;49.012;8.610;2023-02-22T08:56:52;6.60;99.90
25320;DHT22;13256;49.012;8.610;2023-02-22T08:59:23;6.80;99.90
25320;DHT22;13256;49.012;8.610;2023-02-22T09:01:51;7.00;99.90
25320;DHT22;13256;49.012;8.610;2023-02-22T09:04:19;7.20;99.90
25320;DHT22;13256;49.012;8.610;2023-02-22T09:06:48;7.40;99.90
25320;DHT22;13256;49.012;8.610;2023-02-22T09:09:19;7.70;99.90
25320;DHT22;13256;49.012;8.610;2023-02-22T09:11:51;7.80;99.90
25320;DHT22;13256;49.012;8.610;2023-02-22T09:14:22;8.00;99.90
25320;DHT22;13256;49.012;8.610;2023-02-22T09:16:49;8.20;99.90
25320;DHT22;13256;49.012;8.610;2023-02-22T09:19:28;8.40;99.90
25320;DHT22;13256;49.012;8.610;2023-02-22T09:22:08;8.60;99.90
25320;DHT22;13256;49.012;8.610;2023-02-22T09:24:37;8.80;99.90
25320;DHT22;13256;49.012;8.610;2023-02-22T09:27:06;9.00;99.90
25320;DHT22;13256;49.012;8.610;2023-02-22T09:29:39;9.20;99.90
25320;DHT22;13256;49.012;8.610;2023-02-22T09:32:16;9.50;99.90
25320;DHT22;13256;49.012;8.610;2023-02-22T09:34:45;9.60;99.90
25320;DHT22;13256;49.012;8.610;2023-02-22T09:37:13;9.70;99.90
25320;DHT22;13256;49.012;8.610;2023-02-22T09:39:42;9.70;99.90
25320;DHT22;13256;49.012;8.610;2023-02-22T09:42:15;9.70;99.90
25320;DHT22;13256;49.012;8.610;2023-02-22T09:45:02;9.90;99.90
25320;DHT22;13256;49.012;8.610;2023-02-22T09:47:42;10.10;99.90
25320;DHT22;13256;49.012;8.610;2023-02-22T09:50:22;10.30;99.90
25320;DHT22;13256;49.012;8.610;2023-02-22T09:55:48;10.70;99.90
25320;DHT22;13256;49.012;8.610;2023-02-22T10:07:18;11.40;99.90
25320;DHT22;13256;49.012;8.610;2023-02-22T10:09:48;11.50;99.90
25320;DHT22;13256;49.012;8.610;2023-02-22T10:12:22;11.60;99.90
25320;DHT22;13256;49.012;8.610;2023-02-22T10:15:05;11.70;99.90
25320;DHT22;13256;49.012;8.610;2023-02-22T10:24:05;12.20;99.90
25320;DHT22;13256;49.012;8.610;2023-02-22T10:26:40;12.30;99.90
25320;DHT22;13256;49.012;8.610;2023-02-22T10:29:43;12.50;99.90
25320;DHT22;13256;49.012;8.610;2023-02-22T10:32:39;12.70;99.90
25320;DHT22;13256;49.012;8.610;2023-02-22T10:35:29;12.90;99.90
25320;DHT22;13256;49.012;8.610;2023-02-22T10:41:29;13.50;99.90
25320;DHT22;13256;49.012;8.610;2023-02-22T10:43:40;13.60;99.90
25320;DHT22;13256;49.012;8.610;2023-02-22T10:46:20;13.80;99.90
25320;DHT22;13256;49.012;8.610;2023-02-22T10:48:59;13.90;99.90
25320;DHT22;13256;49.012;8.610;2023-02-22T10:51:32;14.00;99.90
25320;DHT22;13256;49.012;8.610;2023-02-22T10:56:49;14.30;99.90
25320;DHT22;13256;49.012;8.610;2023-02-22T10:59:33;14.40;99.90
25320;DHT22;13256;49.012;8.610;2023-02-22T11:02:23;14.40;99.90
25320;DHT22;13256;49.012;8.610;2023-02-22T11:04:57;14.50;99.90
25320;DHT22;13256;49.012;8.610;2023-02-22T11:10:00;14.80;99.90
25320;DHT22;13256;49.012;8.610;2023-02-22T11:12:40;14.70;99.90
25320;DHT22;13256;49.012;8.610;2023-02-22T11:15:25;14.70;99.90
25320;DHT22;13256;49.012;8.610;2023-02-22T11:17:58;14.70;99.90
25320;DHT22;13256;49.012;8.610;2023-02-22T11:20:30;14.60;99.90
25320;DHT22;13256;49.012;8.610;2023-02-22T11:23:02;14.30;99.90
25320;DHT22;13256;49.012;8.610;2023-02-22T11:25:39;14.20;99.90
25320;DHT22;13256;49.012;8.610;2023-02-22T11:28:20;14.20;99.90
25320;DHT22;13256;49.012;8.610;2023-02-22T11:31:14;14.30;99.90
25320;DHT22;13256;49.012;8.610;2023-02-22T11:34:00;14.30;99.90
25320;DHT22;13256;49.012;8.610;2023-02-22T11:36:40;14.30;99.90
25320;DHT22;13256;49.012;8.610;2023-02-22T11:39:29;14.40;99.90
25320;DHT22;13256;49.012;8.610;2023-02-22T11:42:33;14.60;99.90
25320;DHT22;13256;49.012;8.610;2023-02-22T11:45:26;14.80;99.90
25320;DHT22;13256;49.012;8.610;2023-02-22T11:47:59;15.00;99.90
25320;DHT22;13256;49.012;8.610;2023-02-22T11:50:37;15.20;99.90
25320;DHT22;13256;49.012;8.610;2023-02-22T11:53:39;15.30;99.90
25320;DHT22;13256;49.012;8.610;2023-02-22T11:56:27;15.30;99.90
25320;DHT22;13256;49.012;8.610;2023-02-22T11:59:45;15.40;99.90
25320;DHT22;13256;49.012;8.610;2023-02-22T12:02:50;15.50;99.90
25320;DHT22;13256;49.012;8.610;2023-02-22T12:06:38;15.50;99.90
25320;DHT22;13256;49.012;8.610;2023-02-22T12:20:54;17.00;99.90
25320;DHT22;13256;49.012;8.610;2023-02-22T12:24:15;17.30;99.90
25320;DHT22;13256;49.012;8.610;2023-02-22T12:27:08;17.50;97.80
25320;DHT22;13256;49.012;8.610;2023-02-22T12:30:05;17.50;97.60
25320;DHT22;13256;49.012;8.610;2023-02-22T12:32:50;17.60;98.40
25320;DHT22;13256;49.012;8.610;2023-02-22T12:41:33;17.80;96.60
25320;DHT22;13256;49.012;8.610;2023-02-22T12:44:17;18.10;96.30
25320;DHT22;13256;49.012;8.610;2023-02-22T12:46:51;18.30;95.20
25320;DHT22;13256;49.012;8.610;2023-02-22T12:50:04;18.50;94.30
25320;DHT22;13256;49.012;8.610;2023-02-22T12:55:27;18.80;92.80
25320;DHT22;13256;49.012;8.610;2023-02-22T12:58:08;19.10;94.70
25320;DHT22;13256;49.012;8.610;2023-02-22T13:00:59;19.50;91.60
25320;DHT22;13256;49.012;8.610;2023-02-22T13:03:37;19.70;91.80
25320;DHT22;13256;49.012;8.610;2023-02-22T13:11:57;20.10;87.70
25320;DHT22;13256;49.012;8.610;2023-02-22T13:23:12;19.60;86.50
25320;DHT22;13256;49.012;8.610;2023-02-22T13:29:01;19.00;81.20
25320;DHT22;13256;49.012;8.610;2023-02-22T13:32:15;18.60;85.70
25320;DHT22;13256;49.012;8.610;2023-02-22T13:37:59;18.30;85.70
25320;DHT22;13256;49.012;8.610;2023-02-22T13:52:37;17.70;88.20
25320;DHT22;13256;49.012;8.610;2023-02-22T13:55:33;17.60;90.00
25320;DHT22;13256;49.012;8.610;2023-02-22T13:58:14;17.50;89.30
25320;DHT22;13256;49.012;8.610;2023-02-22T14:00:48;17.50;89.40
25320;DHT22;13256;49.012;8.610;2023-02-22T14:06:04;17.50;90.10
25320;DHT22;13256;49.012;8.610;2023-02-22T14:08:39;17.20;88.90
25320;DHT22;13256;49.012;8.610;2023-02-22T14:14:20;17.20;91.20
25320;DHT22;13256;49.012;8.610;2023-02-22T14:20:04;17.30;91.60
25320;DHT22;13256;49.012;8.610;2023-02-22T14:24:07;17.30;91.80
25320;DHT22;13256;49.012;8.610;2023-02-22T14:26:29;17.20;91.40
25320;DHT22;13256;49.012;8.610;2023-02-22T14:29:19;17.00;92.80
25320;DHT22;13256;49.012;8.610;2023-02-22T14:32:01;17.00;92.30
25320;DHT22;13256;49.012;8.610;2023-02-22T14:37:59;16.80;92.60
25320;DHT22;13256;49.012;8.610;2023-02-22T14:40:32;16.70;92.80
25320;DHT22;13256;49.012;8.610;2023-02-22T14:43:13;16.70;93.10
25320;DHT22;13256;49.012;8.610;2023-02-22T14:45:56;16.60;93.60
25320;DHT22;13256;49.012;8.610;2023-02-22T14:48:39;16.60;93.60
25320;DHT22;13256;49.012;8.610;2023-02-22T14:51:24;16.40;93.60
25320;DHT22;13256;49.012;8.610;2023-02-22T14:54:30;16.20;93.80
25320;DHT22;13256;49.012;8.610;2023-02-22T15:00:05;15.90;94.90
25320;DHT22;13256;49.012;8.610;2023-02-22T15:02:58;15.80;95.50
25320;DHT22;13256;49.012;8.610;2023-02-22T15:05:34;15.70;96.10
25320;DHT22;13256;49.012;8.610;2023-02-22T15:08:16;15.70;96.20
25320;DHT22;13256;49.012;8.610;2023-02-22T15:17:23;15.10;98.00
25320;DHT22;13256;49.012;8.610;2023-02-22T15:20:08;14.90;98.70
25320;DHT22;13256;49.012;8.610;2023-02-22T15:22:37;14.80;99.60
25320;DHT22;13256;49.012;8.610;2023-02-22T15:25:13;14.70;99.90
25320;DHT22;13256;49.012;8.610;2023-02-22T15:27:45;14.70;99.90
25320;DHT22;13256;49.012;8.610;2023-02-22T15:30:26;14.60;99.90
25320;DHT22;13256;49.012;8.610;2023-02-22T15:33:32;14.50;99.90
25320;DHT22;13256;49.012;8.610;2023-02-22T15:36:14;14.40;99.90
25320;DHT22;13256;49.012;8.610;2023-02-22T15:38:50;14.30;99.90
25320;DHT22;13256;49.012;8.610;2023-02-22T15:41:31;14.20;99.90
25320;DHT22;13256;49.012;8.610;2023-02-22T15:44:10;14.10;99.90
25320;DHT22;13256;49.012;8.610;2023-02-22T15:47:00;14.00;99.90
25320;DHT22;13256;49.012;8.610;2023-02-22T15:49:28;14.00;99.90
25320;DHT22;13256;49.012;8.610;2023-02-22T15:52:19;13.90;99.90
25320;DHT22;13256;49.012;8.610;2023-02-22T15:54:49;13.80;99.90
25320;DHT22;13256;49.012;8.610;2023-02-22T15:57:22;13.90;99.90
25320;DHT22;13256;49.012;8.610;2023-02-22T16:00:00;13.80;99.90
25320;DHT22;13256;49.012;8.610;2023-02-22T16:02:48;13.80;99.90
25320;DHT22;13256;49.012;8.610;2023-02-22T16:05:27;13.70;99.90
25320;DHT22;13256;49.012;8.610;2023-02-22T16:08:02;13.70;99.90
25320;DHT22;13256;49.012;8.610;2023-02-22T16:11:03;13.70;99.90
25320;DHT22;13256;49.012;8.610;2023-02-22T16:13:36;13.70;99.90
25320;DHT22;13256;49.012;8.610;2023-02-22T16:18:51;13.60;99.90
25320;DHT22;13256;49.012;8.610;2023-02-22T16:21:23;13.50;99.90
25320;DHT22;13256;49.012;8.610;2023-02-22T16:23:54;13.50;99.90
25320;DHT22;13256;49.012;8.610;2023-02-22T16:26:33;13.40;99.90
25320;DHT22;13256;49.012;8.610;2023-02-22T16:29:09;13.30;99.90
25320;DHT22;13256;49.012;8.610;2023-02-22T16:31:50;13.20;99.90
25320;DHT22;13256;49.012;8.610;2023-02-22T16:34:17;13.10;99.90
25320;DHT22;13256;49.012;8.610;2023-02-22T16:36:46;13.10;99.90
25320;DHT22;13256;49.012;8.610;2023-02-22T16:39:28;13.00;99.90
25320;DHT22;13256;49.012;8.610;2023-02-22T16:42:01;12.90;99.90
25320;DHT22;13256;49.012;8.610;2023-02-22T16:44:28;12.80;99.90
25320;DHT22;13256;49.012;8.610;2023-02-22T16:46:57;12.70;99.90
25320;DHT22;13256;49.012;8.610;2023-02-22T16:49:26;12.70;99.90
25320;DHT22;13256;49.012;8.610;2023-02-22T16:51:55;12.70;99.90
25320;DHT22;13256;49.012;8.610;2023-02-22T16:54:30;12.70;99.90
25320;DHT22;13256;49.012;8.610;2023-02-22T16:57:00;12.60;99.90
25320;DHT22;13256;49.012;8.610;2023-02-22T16:59:35;12.50;99.90
25320;DHT22;13256;49.012;8.610;2023-02-22T17:02:06;12.50;99.90
25320;DHT22;13256;49.012;8.610;2023-02-22T17:04:37;12.50;99.90
25320;DHT22;13256;49.012;8.610;2023-02-22T17:07:08;12.40;99.90
25320;DHT22;13256;49.012;8.610;2023-02-22T17:09:40;12.30;99.90
25320;DHT22;13256;49.012;8.610;2023-02-22T17:12:11;12.30;99.90
25320;DHT22;13256;49.012;8.610;2023-02-22T17:17:34;12.20;99.90
25320;DHT22;13256;49.012;8.610;2023-02-22T17:20:56;12.10;99.90
25320;DHT22;13256;49.012;8.610;2023-02-22T17:23:33;12.10;99.90
25320;DHT22;13256;49.012;8.610;2023-02-22T17:26:07;12.10;99.90
25320;DHT22;13256;49.012;8.610;2023-02-22T17:28:37;12.00;99.90
25320;DHT22;13256;49.012;8.610;2023-02-22T17:31:25;12.00;99.90
25320;DHT22;13256;49.012;8.610;2023-02-22T17:39:40;11.80;99.90
25320;DHT22;13256;49.012;8.610;2023-02-22T17:42:07;11.70;99.90
25320;DHT22;13256;49.012;8.610;2023-02-22T17:44:35;11.70;99.90
25320;DHT22;13256;49.012;8.610;2023-02-22T17:47:04;11.70;99.90
25320;DHT22;13256;49.012;8.610;2023-02-22T17:49:37;11.60;99.90
25320;DHT22;13256;49.012;8.610;2023-02-22T17:52:06;11.60;99.90
25320;DHT22;13256;49.012;8.610;2023-02-22T17:54:44;11.60;99.90
25320;DHT22;13256;49.012;8.610;2023-02-22T17:57:12;11.50;99.90
25320;DHT22;13256;49.012;8.610;2023-02-22T18:00:11;11.50;99.90
25320;DHT22;13256;49.012;8.610;2023-02-22T18:02:54;11.50;99.90
25320;DHT22;13256;49.012;8.610;2023-02-22T18:08:47;11.40;99.90
25320;DHT22;13256;49.012;8.610;2023-02-22T18:14:24;11.40;99.90
25320;DHT22;13256;49.012;8.610;2023-02-22T18:17:03;11.30;99.90
25320;DHT22;13256;49.012;8.610;2023-02-22T18:19:56;11.30;99.90
25320;DHT22;13256;49.012;8.610;2023-02-22T18:25:05;11.20;99.90
25320;DHT22;13256;49.012;8.610;2023-02-22T18:27:34;11.20;99.90
25320;DHT22;13256;49.012;8.610;2023-02-22T18:30:14;11.20;99.90
25320;DHT22;13256;49.012;8.610;2023-02-22T18:32:54;11.10;99.90
25320;DHT22;13256;49.012;8.610;2023-02-22T18:35:24;11.10;99.90
25320;DHT22;13256;49.012;8.610;2023-02-22T18:41:03;11.00;99.90
25320;DHT22;13256;49.012;8.610;2023-02-22T18:43:33;10.90;99.90
25320;DHT22;13256;49.012;8.610;2023-02-22T18:49:04;10.90;99.90
25320;DHT22;13256;49.012;8.610;2023-02-22T18:54:25;10.90;99.90
25320;DHT22;13256;49.012;8.610;2023-02-22T18:56:58;10.90;99.90
25320;DHT22;13256;49.012;8.610;2023-02-22T18:59:27;10.90;99.90
25320;DHT22;13256;49.012;8.610;2023-02-22T19:01:58;10.90;99.90
25320;DHT22;13256;49.012;8.610;2023-02-22T19:04:30;10.80;99.90
25320;DHT22;13256;49.012;8.610;2023-02-22T19:07:04;10.80;99.90
25320;DHT22;13256;49.012;8.610;2023-02-22T19:09:32;10.80;99.90
25320;DHT22;13256;49.012;8.610;2023-02-22T19:12:01;10.80;99.90
25320;DHT22;13256;49.012;8.610;2023-02-22T19:14:29;10.80;99.90
25320;DHT22;13256;49.012;8.610;2023-02-22T19:17:25;10.80;99.90
25320;DHT22;13256;49.012;8.610;2023-02-22T19:20:03;10.70;99.90
25320;DHT22;13256;49.012;8.610;2023-02-22T19:22:42;10.70;99.90
25320;DHT22;13256;49.012;8.610;2023-02-22T19:25:11;10.70;99.90
25320;DHT22;13256;49.012;8.610;2023-02-22T19:28:05;10.70;99.90